Maywood, NE

6:10 PM CDT on August 27, 2015 (GMT -0500)
HAYES CENTER | | Change Station
CLOSE
Current Station
Personal Weather Station
Location: HAYES CENTER, NE
Elevation: 3035 ft
Nearby Weather Stations

Elev 3035 ft 40.49 °N, 101.04 °W | Updated 8 minutes ago

Partly Cloudy
Partly Cloudy
89.5 °F
Feels Like 89 °F
N
0.0
Wind Variable Wind from NW
Gusts 14.0 mph

Today
High -- | Low -- °F
--% Chance of Precip.
Yesterday
High -- | Low -- °F
Precip. -- in
7:04 AM 8:22 PM
Waxing Gibbous, 95% visible
Pressure 29.72 in
Visibility 10.0 miles
Clouds Clear
Heat Index 89 °F
Dew Point 60 °F
Humidity 37%
Rainfall 0.00 in
Snow Depth Not available.
UV 3 out of 12
Pollen 10.60 out of 12
Air Quality Not available.
Flu Activity Not available.
METAR KMCK 272253Z AUTO 29009KT 10SM CLR 34/14 A2981 RMK AO2 SLP063 T03390144
Pressure 29.72 in
Visibility 10.0 miles
Clouds Clear
Heat Index 89 °F
Dew Point 60 °F
Humidity 37%
Rainfall 0.00 in
Snow Depth Not available.
UV 3 out of 12
Pollen 10.60 out of 12
Air Quality Not available.
Flu Activity Not available.
METAR KMCK 272253Z AUTO 29009KT 10SM CLR 34/14 A2981 RMK AO2 SLP063 T03390144

10-Day Weather Forecast

×

Almanac

Astronomy

Aug. 27, 2015 Rise Set
Actual Time
Civil Twilight
Nautical Twilight
Astronomical Twilight
Moon
Length of Visible Light
Length of Day
Tomorrow will be .
, % of the Moon is Illuminated

Today's Extremes

State Highs State Lows

Community

WunderPhotos

Upload Photos

1,850,258 photos uploaded!

WunderBlogs® & News

Nearby

Air Quality

  Air Quality AQ Index Pollutant
Not available.

Snow Depth

Station Depth Elevation

Earthquake Activity

City Distance Mag. Time & Date
Minimum magnitude displayed is 2.5.

Coastal Water Temperatures

Place Temperature

Stations

Nearby Weather Stations

Station Location Temp. Windchill Dew Point Humidity Wind Precip. Elev Updated Type